Time;durP1;ratioP1;P1;durP2;ratioP2;P2;SDS_P1;SDS_P2;PMS_P1;PMS_P2;Temp;Humidity;BMP_temperature;BMP_pressure;BME280_temperature;BME280_humidity;BME280_pressure;Samples;Min_cycle;Max_cycle;Signal;HPM_P1;HPM_P2
2023/12/02 00:01:22;;;;;;;7.37;6.77;;;-0.10;99.90;;;;;;4990389;28;20408;-75
2023/12/02 00:03:48;;;;;;;7.13;4.63;;;-0.10;99.90;;;;;;4983194;28;20524;-74
2023/12/02 00:06:13;;;;;;;8.03;5.10;;;-0.10;99.90;;;;;;4999690;28;20045;-74
2023/12/02 00:08:39;;;;;;;8.93;8.23;;;-0.10;99.90;;;;;;4987738;28;20831;-74
2023/12/02 00:11:07;;;;;;;7.77;7.27;;;-0.10;99.90;;;;;;5000417;28;20146;-74
2023/12/02 00:13:33;;;;;;;8.97;8.27;;;-0.10;99.90;;;;;;4986603;28;20053;-74
2023/12/02 00:15:58;;;;;;;6.73;6.33;;;-0.10;99.90;;;;;;5001960;28;20501;-74
2023/12/02 00:18:24;;;;;;;6.57;5.00;;;-0.10;99.90;;;;;;5002119;28;20081;-74
2023/12/02 00:20:49;;;;;;;13.47;8.63;;;-0.10;99.90;;;;;;4999700;28;20038;-74
2023/12/02 00:23:15;;;;;;;11.07;6.77;;;-0.10;99.90;;;;;;5003704;28;20508;-74
2023/12/02 00:25:41;;;;;;;4.83;3.93;;;-0.10;99.90;;;;;;4985223;28;20042;-74
2023/12/02 00:28:06;;;;;;;11.83;10.07;;;-0.10;99.90;;;;;;4982477;28;20397;-74
2023/12/02 00:30:32;;;;;;;7.53;7.10;;;0.00;99.90;;;;;;5002999;28;20041;-74
2023/12/02 00:32:57;;;;;;;11.97;5.93;;;0.00;99.90;;;;;;5000917;28;20053;-74
2023/12/02 00:35:23;;;;;;;6.33;5.73;;;0.00;99.90;;;;;;5000906;28;20133;-74
2023/12/02 00:37:48;;;;;;;15.03;8.13;;;0.00;99.90;;;;;;4990725;28;20038;-74
2023/12/02 00:40:14;;;;;;;7.50;7.00;;;0.00;99.90;;;;;;5001417;28;20045;-74
2023/12/02 00:42:40;;;;;;;11.60;7.47;;;0.00;99.90;;;;;;4992726;28;20050;-74
2023/12/02 00:45:06;;;;;;;7.13;6.37;;;0.00;99.90;;;;;;4982362;28;20042;-74
2023/12/02 00:47:32;;;;;;;16.00;8.73;;;0.00;99.90;;;;;;4983610;28;20125;-74
2023/12/02 00:49:58;;;;;;;9.53;7.07;;;0.00;99.90;;;;;;4981294;28;20129;-74
2023/12/02 00:52:23;;;;;;;6.20;5.60;;;0.00;99.90;;;;;;4983420;28;20469;-74
2023/12/02 00:54:49;;;;;;;6.87;6.17;;;0.10;99.90;;;;;;4992494;28;20049;-74
2023/12/02 00:57:14;;;;;;;8.70;6.17;;;0.10;99.90;;;;;;5001618;28;20511;-74
2023/12/02 00:59:40;;;;;;;15.83;11.27;;;0.10;99.90;;;;;;4993355;28;20120;-74
2023/12/02 01:02:06;;;;;;;8.70;7.10;;;0.10;99.90;;;;;;4981770;28;20030;-74
2023/12/02 01:04:32;;;;;;;6.90;6.23;;;0.10;99.90;;;;;;4983468;28;20117;-74
2023/12/02 01:06:58;;;;;;;8.60;7.90;;;0.10;99.90;;;;;;4996226;28;20113;-74
2023/12/02 01:09:23;;;;;;;7.50;6.53;;;0.10;99.90;;;;;;4983183;28;20044;-74
2023/12/02 01:11:49;;;;;;;9.90;8.93;;;0.10;99.90;;;;;;4980794;28;20043;-74
2023/12/02 01:14:14;;;;;;;9.13;8.43;;;0.20;99.90;;;;;;4982205;28;20065;-74
2023/12/02 01:16:40;;;;;;;8.60;7.83;;;0.20;99.90;;;;;;4997050;28;20284;-74
2023/12/02 01:19:05;;;;;;;11.87;10.93;;;0.20;99.90;;;;;;4982023;28;20129;-74
2023/12/02 01:21:31;;;;;;;8.20;6.13;;;0.20;99.90;;;;;;4965297;28;20042;-74
2023/12/02 01:23:57;;;;;;;7.00;6.50;;;0.20;99.90;;;;;;4983266;28;20503;-75
2023/12/02 01:26:23;;;;;;;8.93;8.07;;;0.20;99.90;;;;;;4994606;28;20061;-74
2023/12/02 01:28:49;;;;;;;8.50;6.20;;;0.10;99.90;;;;;;5001462;28;20053;-74
2023/12/02 01:31:14;;;;;;;7.03;6.53;;;0.10;99.90;;;;;;5001705;28;20396;-74
2023/12/02 01:33:40;;;;;;;7.00;6.50;;;0.10;99.90;;;;;;5002244;28;20042;-75
2023/12/02 01:36:10;;;;;;;9.17;7.67;;;0.20;99.90;;;;;;5001614;28;20045;-75
2023/12/02 01:38:35;;;;;;;9.00;8.27;;;0.20;99.90;;;;;;5001049;28;20033;-75
2023/12/02 01:41:01;;;;;;;5.83;5.37;;;0.20;99.90;;;;;;4997271;28;20559;-75
2023/12/02 01:43:26;;;;;;;10.50;9.17;;;0.20;99.90;;;;;;4982246;28;20038;-75
2023/12/02 01:45:54;;;;;;;9.50;8.67;;;0.20;99.90;;;;;;4999187;28;20060;-75
2023/12/02 01:48:21;;;;;;;7.37;6.07;;;0.20;99.90;;;;;;5001058;28;20508;-75
2023/12/02 01:50:47;;;;;;;8.03;7.43;;;0.20;99.90;;;;;;4962393;28;20101;-75
2023/12/02 01:53:13;;;;;;;4.83;4.53;;;0.10;99.90;;;;;;4968190;28;20096;-75
2023/12/02 01:55:39;;;;;;;10.73;7.23;;;0.10;99.90;;;;;;5001029;28;20034;-75
2023/12/02 01:58:05;;;;;;;7.27;6.77;;;0.20;99.90;;;;;;4998611;28;20147;-75
2023/12/02 02:00:30;;;;;;;5.60;5.10;;;0.20;99.90;;;;;;4977099;28;20121;-75
2023/12/02 02:02:56;;;;;;;8.63;7.57;;;0.20;99.90;;;;;;4967348;28;20070;-75
2023/12/02 02:05:21;;;;;;;7.60;7.00;;;0.20;99.90;;;;;;4981187;28;20484;-75
2023/12/02 02:07:50;;;;;;;5.60;5.13;;;0.20;99.90;;;;;;5080479;22;20573;-77
2023/12/02 02:10:15;;;;;;;7.73;7.13;;;0.20;99.90;;;;;;4998902;28;20104;-77
2023/12/02 02:12:41;;;;;;;8.03;7.17;;;0.20;99.90;;;;;;5013887;28;20041;-77
2023/12/02 02:15:07;;;;;;;16.00;7.27;;;0.20;99.90;;;;;;5009312;28;20046;-78
2023/12/02 02:17:33;;;;;;;9.33;5.83;;;0.20;99.90;;;;;;5000462;28;20038;-78
2023/12/02 02:19:58;;;;;;;7.40;6.47;;;0.20;99.90;;;;;;5000352;28;20046;-77
2023/12/02 02:22:24;;;;;;;12.13;6.97;;;0.10;99.90;;;;;;5000279;28;20053;-79
2023/12/02 02:24:49;;;;;;;9.47;6.87;;;0.10;99.90;;;;;;5000150;28;20085;-78
2023/12/02 02:27:15;;;;;;;8.93;6.73;;;0.10;99.90;;;;;;4971468;28;20113;-79
2023/12/02 02:29:40;;;;;;;7.67;6.97;;;0.10;99.90;;;;;;4980941;28;20042;-77
2023/12/02 02:32:06;;;;;;;6.53;5.37;;;0.20;99.90;;;;;;4981397;28;20046;-77
2023/12/02 02:34:32;;;;;;;6.00;5.40;;;0.20;99.90;;;;;;4982739;28;20053;-79
2023/12/02 02:36:58;;;;;;;6.17;5.67;;;0.20;99.90;;;;;;4964157;28;20046;-78
2023/12/02 02:39:24;;;;;;;7.00;6.40;;;0.20;99.90;;;;;;4983637;28;20400;-79
2023/12/02 02:41:49;;;;;;;11.43;8.33;;;0.20;99.90;;;;;;4981990;28;20485;-77
2023/12/02 02:44:15;;;;;;;15.27;6.30;;;0.20;99.90;;;;;;4981172;28;20481;-79
2023/12/02 02:46:40;;;;;;;14.93;7.67;;;0.20;99.90;;;;;;4981027;28;20096;-78
2023/12/02 02:49:06;;;;;;;6.50;6.03;;;0.30;99.90;;;;;;4980750;28;20057;-78
2023/12/02 02:51:32;;;;;;;6.60;6.10;;;0.30;99.90;;;;;;4980851;28;20103;-78
2023/12/02 02:53:58;;;;;;;7.63;6.90;;;0.30;99.90;;;;;;4999740;28;20060;-77
2023/12/02 02:56:23;;;;;;;9.33;8.47;;;0.20;99.90;;;;;;5001053;28;20499;-79
2023/12/02 02:58:49;;;;;;;11.97;8.67;;;0.20;99.90;;;;;;5004454;28;20617;-78
2023/12/02 03:01:15;;;;;;;10.83;8.60;;;0.30;99.90;;;;;;5020502;28;20046;-79
2023/12/02 03:03:40;;;;;;;9.47;7.33;;;0.30;99.90;;;;;;5011548;28;20054;-78
2023/12/02 03:06:07;;;;;;;10.23;8.90;;;0.20;99.90;;;;;;4997693;28;20073;-79
2023/12/02 03:08:32;;;;;;;12.73;7.53;;;0.30;99.90;;;;;;4995219;28;20053;-79
2023/12/02 03:10:58;;;;;;;7.57;6.63;;;0.20;99.90;;;;;;5001656;28;20041;-77
2023/12/02 03:13:25;;;;;;;11.67;8.33;;;0.30;99.90;;;;;;5004019;28;20142;-79
2023/12/02 03:15:50;;;;;;;6.30;5.87;;;0.30;99.90;;;;;;4986974;28;20130;-77
2023/12/02 03:18:16;;;;;;;9.33;8.40;;;0.30;99.90;;;;;;4987164;28;20037;-79
2023/12/02 03:20:41;;;;;;;7.00;6.30;;;0.30;99.90;;;;;;4987324;28;20586;-78
2023/12/02 03:23:07;;;;;;;7.00;6.40;;;0.30;99.90;;;;;;5002427;28;20460;-77
2023/12/02 03:25:32;;;;;;;7.20;6.10;;;0.30;99.90;;;;;;5004315;28;20080;-79
2023/12/02 03:27:58;;;;;;;8.20;7.47;;;0.30;99.90;;;;;;5003153;28;20082;-77
2023/12/02 03:30:24;;;;;;;6.63;6.13;;;0.30;99.90;;;;;;4986885;28;20116;-79
2023/12/02 03:32:49;;;;;;;5.27;4.87;;;0.30;99.90;;;;;;5003569;28;20058;-78
2023/12/02 03:35:15;;;;;;;9.43;8.47;;;0.30;99.90;;;;;;5004252;28;20045;-78
2023/12/02 03:37:41;;;;;;;5.77;5.27;;;0.30;99.90;;;;;;4983920;28;20054;-78
2023/12/02 03:40:07;;;;;;;7.27;6.77;;;0.30;99.90;;;;;;4982286;28;20097;-78
2023/12/02 03:42:33;;;;;;;16.07;8.27;;;0.30;99.90;;;;;;5023023;28;20044;-79
2023/12/02 03:44:58;;;;;;;7.10;6.53;;;0.30;99.90;;;;;;4994252;28;20072;-78
2023/12/02 03:47:24;;;;;;;9.73;8.93;;;0.30;99.90;;;;;;5002787;28;20046;-79
2023/12/02 03:49:49;;;;;;;7.27;6.67;;;0.30;99.90;;;;;;5004334;28;20425;-78
2023/12/02 03:52:15;;;;;;;8.57;6.53;;;0.20;99.90;;;;;;5002759;28;20404;-78
2023/12/02 03:54:41;;;;;;;8.23;6.87;;;0.20;99.90;;;;;;5002999;28;20041;-79
2023/12/02 03:57:06;;;;;;;8.73;7.93;;;0.20;99.90;;;;;;4985216;28;20042;-78
2023/12/02 03:59:32;;;;;;;8.20;7.67;;;0.20;99.90;;;;;;5004202;28;20061;-79
2023/12/02 04:01:58;;;;;;;11.07;7.97;;;0.20;99.90;;;;;;4987238;28;20038;-78
2023/12/02 04:04:24;;;;;;;4.83;4.53;;;0.20;99.90;;;;;;4999443;28;20085;-79
2023/12/02 04:06:49;;;;;;;6.83;5.60;;;0.20;99.90;;;;;;5002636;28;20702;-77
2023/12/02 04:09:16;;;;;;;10.90;8.47;;;0.20;99.90;;;;;;4985970;28;20484;-78
2023/12/02 04:11:45;;;;;;;7.83;6.90;;;0.20;99.90;;;;;;4983949;28;20046;-79
2023/12/02 04:14:11;;;;;;;4.50;4.13;;;0.20;99.90;;;;;;4983509;28;20088;-77
2023/12/02 04:16:40;;;;;;;14.17;5.67;;;0.20;99.90;;;;;;4983654;28;20042;-77
2023/12/02 04:19:09;;;;;;;8.37;7.40;;;0.20;99.90;;;;;;4982812;28;20054;-78
2023/12/02 04:21:36;;;;;;;9.37;4.87;;;0.20;99.90;;;;;;4982474;28;20046;-76
2023/12/02 04:24:04;;;;;;;6.80;6.10;;;0.20;99.90;;;;;;4981995;28;20058;-78
2023/12/02 04:26:30;;;;;;;6.67;6.07;;;0.20;99.90;;;;;;4981896;28;20038;-77
2023/12/02 04:28:55;;;;;;;5.50;5.07;;;0.10;99.90;;;;;;4982279;28;20477;-78
2023/12/02 04:31:21;;;;;;;7.00;6.30;;;0.10;99.90;;;;;;4997977;28;20045;-79
2023/12/02 04:33:47;;;;;;;15.60;6.60;;;0.10;99.90;;;;;;5003010;28;20096;-79
2023/12/02 04:36:14;;;;;;;5.87;5.43;;;0.10;99.90;;;;;;5003126;28;20045;-78
2023/12/02 04:38:40;;;;;;;11.10;6.87;;;0.00;99.90;;;;;;5002952;28;20049;-78
2023/12/02 04:41:06;;;;;;;6.67;5.37;;;0.00;99.90;;;;;;5001734;28;20400;-79
2023/12/02 04:43:31;;;;;;;4.67;4.30;;;0.00;99.90;;;;;;4985155;28;20424;-78
2023/12/02 04:45:57;;;;;;;6.23;4.67;;;0.00;99.90;;;;;;5002697;28;20037;-77
2023/12/02 04:48:22;;;;;;;6.57;5.23;;;0.00;99.90;;;;;;5003573;28;20100;-79
2023/12/02 04:50:48;;;;;;;9.33;6.43;;;0.00;99.90;;;;;;4985208;28;20104;-77
2023/12/02 04:53:14;;;;;;;8.00;6.10;;;0.00;99.90;;;;;;4983264;28;20462;-79
2023/12/02 04:55:39;;;;;;;5.63;5.23;;;0.00;99.90;;;;;;4981421;28;20054;-77
2023/12/02 04:58:05;;;;;;;8.17;7.17;;;0.00;99.90;;;;;;4981490;28;20108;-78
2023/12/02 05:00:31;;;;;;;5.00;4.60;;;0.00;99.90;;;;;;4993987;28;20117;-77
2023/12/02 05:02:56;;;;;;;10.77;8.93;;;0.00;99.90;;;;;;4965229;28;20068;-78
2023/12/02 05:05:22;;;;;;;6.90;6.30;;;0.00;99.90;;;;;;4987895;28;20448;-79
2023/12/02 05:07:47;;;;;;;6.43;5.93;;;0.00;99.90;;;;;;4997670;28;20607;-78
2023/12/02 05:10:13;;;;;;;7.37;6.67;;;0.00;99.90;;;;;;4981536;28;20051;-79
2023/12/02 05:12:40;;;;;;;5.57;5.23;;;0.00;99.90;;;;;;4988313;28;20038;-78
2023/12/02 05:15:05;;;;;;;6.83;6.07;;;0.00;99.90;;;;;;4984209;28;20100;-77
2023/12/02 05:17:32;;;;;;;5.77;4.63;;;0.00;99.90;;;;;;5001843;28;20062;-79
2023/12/02 05:20:12;;;;;;;7.97;7.23;;;0.00;99.90;;;;;;5000259;28;20447;-79
2023/12/02 05:22:41;;;;;;;7.63;7.13;;;0.10;99.90;;;;;;4985227;28;20046;-78
2023/12/02 05:25:07;;;;;;;11.47;8.53;;;0.00;99.90;;;;;;4983632;28;20053;-76
2023/12/02 05:27:33;;;;;;;6.83;6.30;;;0.10;99.90;;;;;;4991736;28;20081;-79
2023/12/02 05:29:59;;;;;;;5.43;5.10;;;0.10;99.90;;;;;;4982697;28;20084;-78
2023/12/02 05:32:25;;;;;;;8.17;7.23;;;0.10;99.90;;;;;;4981312;28;20054;-77
2023/12/02 05:34:51;;;;;;;7.73;6.93;;;0.10;99.90;;;;;;4966067;28;20139;-77
2023/12/02 05:37:16;;;;;;;7.43;6.93;;;0.10;99.90;;;;;;5001127;28;20129;-77
2023/12/02 05:39:42;;;;;;;9.70;8.20;;;0.20;99.90;;;;;;5000054;28;20623;-77
2023/12/02 05:42:08;;;;;;;8.23;7.53;;;0.10;99.90;;;;;;5001233;28;20071;-77
2023/12/02 05:44:34;;;;;;;10.73;7.03;;;0.20;99.90;;;;;;5001301;28;20050;-76
2023/12/02 05:47:00;;;;;;;5.10;4.67;;;0.10;99.90;;;;;;5002439;28;20050;-78
2023/12/02 05:49:25;;;;;;;8.23;7.53;;;0.10;99.90;;;;;;5002045;28;20118;-77
2023/12/02 05:51:51;;;;;;;6.77;6.27;;;0.10;99.90;;;;;;5001267;28;20053;-79
2023/12/02 05:54:16;;;;;;;10.67;9.13;;;0.10;99.90;;;;;;5000680;28;20395;-77
2023/12/02 05:56:42;;;;;;;7.60;5.70;;;0.10;99.90;;;;;;4999290;28;20146;-78
2023/12/02 05:59:07;;;;;;;8.67;6.70;;;0.10;99.90;;;;;;5000869;28;20080;-78
2023/12/02 06:01:34;;;;;;;6.70;6.03;;;0.10;99.90;;;;;;5000219;28;20069;-78
2023/12/02 06:04:00;;;;;;;5.43;4.90;;;0.20;99.90;;;;;;5001495;28;20046;-78
2023/12/02 06:06:25;;;;;;;6.93;5.47;;;0.20;99.90;;;;;;4984012;28;20119;-76
2023/12/02 06:08:51;;;;;;;7.50;6.90;;;0.30;99.90;;;;;;4989324;28;20120;-78
2023/12/02 06:11:16;;;;;;;7.80;7.00;;;0.20;99.90;;;;;;4981967;28;20508;-77
2023/12/02 06:13:42;;;;;;;5.00;4.60;;;0.30;99.90;;;;;;4980368;28;20129;-77
2023/12/02 06:16:08;;;;;;;6.63;6.10;;;0.30;99.90;;;;;;4985157;28;20092;-79
2023/12/02 06:18:34;;;;;;;7.80;5.73;;;0.30;99.90;;;;;;4984086;28;20578;-77
2023/12/02 06:20:59;;;;;;;6.03;4.93;;;0.30;99.90;;;;;;4981811;28;20041;-76
2023/12/02 06:23:25;;;;;;;4.60;4.30;;;0.30;99.90;;;;;;5000286;28;20594;-77
2023/12/02 06:25:50;;;;;;;13.47;7.30;;;0.30;99.90;;;;;;4998825;28;20037;-77
2023/12/02 06:28:16;;;;;;;6.70;6.13;;;0.30;99.90;;;;;;5001252;28;20053;-76
2023/12/02 06:30:42;;;;;;;7.27;5.37;;;0.30;99.90;;;;;;4988465;28;20507;-76
2023/12/02 06:33:08;;;;;;;6.00;5.53;;;0.30;99.90;;;;;;5001279;28;20192;-78
2023/12/02 06:35:33;;;;;;;5.17;4.67;;;0.30;99.90;;;;;;5003772;28;20053;-76
2023/12/02 06:37:59;;;;;;;8.27;5.87;;;0.30;99.90;;;;;;5001500;28;20050;-78
2023/12/02 06:40:25;;;;;;;9.63;5.63;;;0.20;99.90;;;;;;4983169;28;20568;-77
2023/12/02 06:42:50;;;;;;;10.53;6.27;;;0.30;99.90;;;;;;4971192;28;20056;-77
2023/12/02 06:45:16;;;;;;;10.27;5.63;;;0.30;99.90;;;;;;4993308;28;20054;-78
2023/12/02 06:47:41;;;;;;;6.67;5.93;;;0.40;99.90;;;;;;4978951;28;20045;-77
2023/12/02 06:50:07;;;;;;;6.23;5.10;;;0.40;99.90;;;;;;4998940;28;20410;-76
2023/12/02 06:52:33;;;;;;;9.03;8.00;;;0.40;99.90;;;;;;4997633;28;20042;-78
2023/12/02 06:54:59;;;;;;;6.03;5.57;;;0.40;99.90;;;;;;4982840;28;20072;-78
2023/12/02 06:57:24;;;;;;;9.13;6.50;;;0.50;99.90;;;;;;4999986;28;20053;-77
2023/12/02 06:59:51;;;;;;;14.40;7.97;;;0.50;99.90;;;;;;5002998;28;20528;-76
2023/12/02 07:02:18;;;;;;;6.73;6.13;;;0.40;99.90;;;;;;5005985;28;20121;-77
2023/12/02 07:04:45;;;;;;;6.47;6.00;;;0.40;99.90;;;;;;5003176;28;20049;-78
2023/12/02 07:07:11;;;;;;;9.27;7.23;;;0.40;99.90;;;;;;4987217;28;20053;-76
2023/12/02 07:09:37;;;;;;;10.70;7.70;;;0.40;99.90;;;;;;5000037;28;20066;-77
2023/12/02 07:12:03;;;;;;;5.53;5.13;;;0.40;99.90;;;;;;5004404;28;20119;-78
2023/12/02 07:14:28;;;;;;;12.87;7.00;;;0.40;99.90;;;;;;5004940;28;20146;-76
2023/12/02 07:16:54;;;;;;;7.93;7.20;;;0.40;99.90;;;;;;4986644;28;20046;-78
2023/12/02 07:19:20;;;;;;;6.67;6.20;;;0.40;99.90;;;;;;5003492;28;20514;-78
2023/12/02 07:21:45;;;;;;;6.07;5.30;;;0.50;99.90;;;;;;4984080;28;20120;-77
2023/12/02 07:24:11;;;;;;;6.00;5.50;;;0.50;99.90;;;;;;4995434;28;20178;-79
2023/12/02 07:26:36;;;;;;;5.67;5.13;;;0.50;99.90;;;;;;5001534;28;20378;-77
2023/12/02 07:29:03;;;;;;;11.63;5.70;;;0.50;99.90;;;;;;4985866;28;20050;-78
2023/12/02 07:31:29;;;;;;;9.27;8.50;;;0.50;99.90;;;;;;4983898;28;20042;-77
2023/12/02 07:33:54;;;;;;;8.57;7.87;;;0.50;99.90;;;;;;4983090;28;20069;-76
2023/12/02 07:36:20;;;;;;;10.60;8.23;;;0.50;99.90;;;;;;4983140;28;20049;-76
2023/12/02 07:38:45;;;;;;;10.27;7.60;;;0.50;99.90;;;;;;4983665;28;20449;-78
2023/12/02 07:41:11;;;;;;;7.07;6.43;;;0.60;99.90;;;;;;4982381;28;20050;-78
2023/12/02 07:43:37;;;;;;;8.43;6.30;;;0.60;99.90;;;;;;4966106;28;20045;-78
2023/12/02 07:46:03;;;;;;;9.30;6.37;;;0.50;99.90;;;;;;4997417;28;20088;-78
2023/12/02 07:48:28;;;;;;;8.40;5.50;;;0.60;99.90;;;;;;5002975;28;20030;-77
2023/12/02 07:50:54;;;;;;;7.67;6.97;;;0.60;99.90;;;;;;4983828;28;20050;-78
2023/12/02 07:53:20;;;;;;;7.70;7.03;;;0.60;99.90;;;;;;4992707;28;20049;-78
2023/12/02 07:55:45;;;;;;;6.47;6.03;;;0.70;99.90;;;;;;4996874;28;20720;-77
2023/12/02 07:58:11;;;;;;;6.43;4.73;;;0.70;99.90;;;;;;5002002;28;20435;-77
2023/12/02 08:00:37;;;;;;;7.23;6.63;;;0.70;99.90;;;;;;4997749;28;20065;-78
2023/12/02 08:03:03;;;;;;;6.10;5.53;;;0.70;99.90;;;;;;4981517;28;20100;-80
2023/12/02 08:05:28;;;;;;;7.53;6.53;;;0.70;99.90;;;;;;4982570;28;20050;-78
2023/12/02 08:07:54;;;;;;;8.93;8.27;;;0.70;99.90;;;;;;4997488;28;20496;-78
2023/12/02 08:10:20;;;;;;;7.80;5.73;;;0.80;99.90;;;;;;4987679;28;20440;-78
2023/12/02 08:12:46;;;;;;;8.73;8.13;;;0.80;99.90;;;;;;4999081;28;20092;-79
2023/12/02 08:15:12;;;;;;;6.93;5.83;;;0.80;99.90;;;;;;4982807;28;20143;-77
2023/12/02 08:17:37;;;;;;;7.70;7.10;;;0.80;99.90;;;;;;4990573;28;20037;-77
2023/12/02 08:20:06;;;;;;;5.97;5.57;;;0.80;99.90;;;;;;4992682;28;20050;-78
2023/12/02 08:22:32;;;;;;;6.63;5.97;;;0.90;99.90;;;;;;4998887;28;20034;-77
2023/12/02 08:24:57;;;;;;;8.80;5.80;;;0.80;99.90;;;;;;4999794;28;20049;-79
2023/12/02 08:27:23;;;;;;;7.50;6.80;;;0.90;99.90;;;;;;4990997;28;20509;-79
2023/12/02 08:29:49;;;;;;;8.50;6.60;;;0.90;99.90;;;;;;4993187;28;20087;-77
2023/12/02 08:32:14;;;;;;;7.90;6.90;;;0.90;99.90;;;;;;4985740;28;20049;-78
2023/12/02 08:34:40;;;;;;;6.77;5.33;;;0.90;99.90;;;;;;5003687;28;20451;-77
2023/12/02 08:37:06;;;;;;;6.73;6.30;;;0.90;99.90;;;;;;4991002;28;20050;-78
2023/12/02 08:39:32;;;;;;;6.93;6.53;;;0.90;99.90;;;;;;5015593;28;20053;-79
2023/12/02 08:41:58;;;;;;;7.23;6.63;;;1.00;99.90;;;;;;4997613;28;20401;-78
2023/12/02 08:44:24;;;;;;;9.73;6.23;;;1.00;99.90;;;;;;4987236;28;20034;-80
2023/12/02 08:46:50;;;;;;;10.53;6.83;;;1.00;99.90;;;;;;4999906;28;20509;-79
2023/12/02 08:49:16;;;;;;;4.53;4.23;;;1.00;99.90;;;;;;4997103;28;20448;-80
2023/12/02 08:51:41;;;;;;;5.33;4.93;;;1.00;99.90;;;;;;4992746;28;20045;-79
2023/12/02 08:54:07;;;;;;;7.57;4.13;;;1.00;99.90;;;;;;4977590;28;20542;-78
2023/12/02 08:56:33;;;;;;;6.47;4.20;;;1.10;99.90;;;;;;4998114;28;20045;-79
2023/12/02 08:58:59;;;;;;;6.13;4.40;;;1.10;99.90;;;;;;4999960;28;21941;-78
2023/12/02 09:01:25;;;;;;;7.27;4.17;;;1.10;99.90;;;;;;4999730;28;20095;-84
2023/12/02 09:03:51;;;;;;;5.53;5.00;;;1.20;99.90;;;;;;5007159;28;20044;-78
2023/12/02 09:06:16;;;;;;;10.13;6.47;;;1.20;99.90;;;;;;4998105;28;20053;-78
2023/12/02 09:08:42;;;;;;;4.27;3.87;;;1.20;99.90;;;;;;4991733;28;20133;-79
2023/12/02 09:11:08;;;;;;;5.20;4.83;;;1.20;99.90;;;;;;4995685;28;20046;-80
2023/12/02 09:13:39;;;;;;;8.50;5.23;;;1.20;99.90;;;;;;4989914;28;20050;-82
2023/12/02 09:16:07;;;;;;;4.60;4.10;;;1.20;99.90;;;;;;4970853;28;20136;-80
2023/12/02 09:18:35;;;;;;;4.60;4.23;;;1.30;99.90;;;;;;4971710;28;20072;-79
2023/12/02 09:21:00;;;;;;;6.17;5.57;;;1.30;99.90;;;;;;4971967;28;20037;-80
2023/12/02 09:23:27;;;;;;;6.37;3.47;;;1.30;99.90;;;;;;4997964;28;20049;-78
2023/12/02 09:25:53;;;;;;;4.40;3.87;;;1.40;99.90;;;;;;4993433;28;20049;-78
2023/12/02 09:28:26;;;;;;;3.60;3.23;;;1.40;99.90;;;;;;4994209;28;20113;-79
2023/12/02 09:31:00;;;;;;;5.17;4.10;;;1.40;99.90;;;;;;4968324;28;20038;-75
2023/12/02 09:33:27;;;;;;;5.40;4.63;;;1.50;99.90;;;;;;4986488;28;20052;-81
2023/12/02 09:35:55;;;;;;;5.77;3.80;;;1.50;99.90;;;;;;4998225;28;20562;-73
2023/12/02 09:38:21;;;;;;;4.40;4.00;;;1.50;99.90;;;;;;4990961;28;20042;-77
2023/12/02 09:41:15;;;;;;;4.67;4.37;;;1.50;99.90;;;;;;4972733;28;20045;-75
2023/12/02 09:43:46;;;;;;;2.67;2.50;;;1.60;99.90;;;;;;4993812;28;20080;-77
2023/12/02 09:46:36;;;;;;;1.33;1.23;;;1.60;99.90;;;;;;4973834;28;20049;-78
2023/12/02 09:49:25;;;;;;;4.77;4.23;;;1.60;99.90;;;;;;4992475;28;20061;-75
2023/12/02 09:52:25;;;;;;;4.87;3.37;;;1.60;99.90;;;;;;4979822;28;20038;-77
2023/12/02 09:55:12;;;;;;;5.83;3.20;;;1.70;99.90;;;;;;4965585;28;20153;-78
2023/12/02 09:57:43;;;;;;;2.83;2.63;;;1.70;99.90;;;;;;4994453;28;20492;-79
2023/12/02 10:00:25;;;;;;;2.47;2.27;;;1.70;99.90;;;;;;4988353;28;20518;-81
2023/12/02 10:02:57;;;;;;;1.90;1.80;;;1.70;99.90;;;;;;4991813;28;20042;-77
2023/12/02 10:05:23;;;;;;;1.50;1.20;;;1.70;99.90;;;;;;4991379;28;20042;-77
2023/12/02 10:08:26;;;;;;;2.03;1.93;;;1.80;99.90;;;;;;4973941;28;20034;-79
2023/12/02 10:11:03;;;;;;;2.65;1.05;;;1.80;99.90;;;;;;4955947;28;20058;-81
2023/12/02 10:13:49;;;;;;;14.83;1.20;;;1.80;99.90;;;;;;4989065;28;20412;-79
2023/12/02 10:16:15;;;;;;;1.80;1.70;;;1.90;99.90;;;;;;5004346;28;20331;-76
2023/12/02 10:18:48;;;;;;;1.50;1.43;;;1.90;99.90;;;;;;5002396;28;20081;-75
2023/12/02 10:21:18;;;;;;;2.77;1.07;;;2.00;99.90;;;;;;4997891;28;20117;-74
2023/12/02 10:24:01;;;;;;;5.60;2.33;;;2.00;99.90;;;;;;4983185;28;20051;-76
2023/12/02 10:26:37;;;;;;;1.53;1.43;;;2.00;99.90;;;;;;4996195;28;20046;-76
2023/12/02 10:29:25;;;;;;;1.03;1.03;;;2.10;99.90;;;;;;4986164;28;20122;-76
2023/12/02 10:32:32;;;;;;;1.00;1.00;;;2.10;99.90;;;;;;5009136;28;20161;-76
2023/12/02 10:35:12;;;;;;;1.60;1.47;;;2.10;99.90;;;;;;4995482;28;20058;-79
2023/12/02 10:37:42;;;;;;;1.53;1.43;;;2.10;99.90;;;;;;4983066;28;20133;-79
2023/12/02 10:40:11;;;;;;;2.27;1.80;;;2.10;99.90;;;;;;4985113;28;20049;-79
2023/12/02 10:43:04;;;;;;;1.63;1.53;;;2.10;99.90;;;;;;5004049;28;20176;-79
2023/12/02 10:45:31;;;;;;;2.10;1.87;;;2.20;99.90;;;;;;5002246;28;20206;-79
2023/12/02 10:48:01;;;;;;;2.55;2.38;;;2.20;99.90;;;;;;4999770;28;20034;-79
2023/12/02 10:50:28;;;;;;;0.70;0.70;;;2.20;99.90;;;;;;4982308;28;20030;-79
2023/12/02 10:53:03;;;;;;;3.03;1.00;;;2.20;99.90;;;;;;4998747;28;20038;-79
2023/12/02 10:55:31;;;;;;;1.13;1.13;;;2.20;99.90;;;;;;4996892;28;20050;-80
2023/12/02 10:57:59;;;;;;;1.03;0.97;;;2.20;99.90;;;;;;4978238;28;20739;-80
2023/12/02 11:00:29;;;;;;;0.73;0.73;;;2.30;99.90;;;;;;4997498;28;20046;-80
2023/12/02 11:03:04;;;;;;;2.00;1.83;;;2.30;99.90;;;;;;4992762;28;20088;-77
2023/12/02 11:05:41;;;;;;;1.33;1.33;;;2.30;99.90;;;;;;5000025;28;20046;-76
2023/12/02 11:08:21;;;;;;;1.80;1.17;;;2.40;99.90;;;;;;4999494;28;20081;-75
2023/12/02 11:10:49;;;;;;;0.80;0.80;;;2.30;99.90;;;;;;4993628;28;20046;-74
2023/12/02 11:13:23;;;;;;;3.37;2.40;;;2.40;99.90;;;;;;4992205;28;20038;-75
2023/12/02 11:16:27;;;;;;;1.43;1.33;;;2.40;99.90;;;;;;5005392;28;20100;-76
2023/12/02 11:19:21;;;;;;;1.03;0.87;;;2.40;99.90;;;;;;4969088;28;20065;-75
2023/12/02 11:22:20;;;;;;;1.92;0.98;;;2.40;99.90;;;;;;4985308;28;20488;-75
2023/12/02 11:25:06;;;;;;;1.57;1.47;;;2.40;99.90;;;;;;4953091;28;20120;-75
2023/12/02 11:28:07;;;;;;;2.05;1.95;;;2.40;99.90;;;;;;4998235;28;20141;-76
2023/12/02 11:30:32;;;;;;;1.40;1.30;;;2.50;99.90;;;;;;4922608;29;20133;-76
2023/12/02 11:33:36;;;;;;;3.50;1.35;;;2.40;99.90;;;;;;4971318;28;20045;-77
2023/12/02 11:36:40;;;;;;;1.88;1.77;;;2.40;99.90;;;;;;4965933;28;20050;-78
2023/12/02 11:39:31;;;;;;;1.43;1.37;;;2.40;99.90;;;;;;4995530;28;20117;-78
2023/12/02 11:42:22;;;;;;;1.97;1.87;;;2.50;99.90;;;;;;4995428;28;20054;-78
2023/12/02 11:45:06;;;;;;;2.97;1.47;;;2.50;99.90;;;;;;4985691;28;20377;-78
2023/12/02 11:47:56;;;;;;;3.80;1.27;;;2.50;99.90;;;;;;4996494;28;20038;-78
2023/12/02 11:50:56;;;;;;;1.40;1.30;;;2.50;99.90;;;;;;4999981;28;20136;-77
2023/12/02 11:53:33;;;;;;;3.67;1.97;;;2.50;99.90;;;;;;4999900;28;20036;-78
2023/12/02 11:56:09;;;;;;;2.07;1.90;;;2.50;99.90;;;;;;4965337;28;20082;-78
2023/12/02 11:59:02;;;;;;;2.47;2.33;;;2.50;99.90;;;;;;4976615;28;20540;-78
2023/12/02 12:01:43;;;;;;;1.27;1.23;;;2.50;99.90;;;;;;4985428;28;20104;-78
2023/12/02 12:04:40;;;;;;;2.30;2.17;;;2.50;99.90;;;;;;5001021;28;20057;-77
2023/12/02 12:07:25;;;;;;;2.17;2.08;;;2.50;99.90;;;;;;5021269;28;20104;-80
2023/12/02 12:10:13;;;;;;;0.93;0.93;;;2.50;99.90;;;;;;4984952;28;20403;-78
2023/12/02 12:12:42;;;;;;;1.43;1.33;;;2.50;99.90;;;;;;4992156;28;20041;-80
2023/12/02 12:15:08;;;;;;;1.90;1.80;;;2.50;99.90;;;;;;4998616;28;20045;-78
2023/12/02 12:17:34;;;;;;;3.58;2.25;;;2.50;99.90;;;;;;4998100;28;20049;-79
2023/12/02 12:20:22;;;;;;;1.53;1.43;;;2.50;99.90;;;;;;4981986;28;20041;-79
2023/12/02 12:22:48;;;;;;;2.10;1.60;;;2.50;99.90;;;;;;4984997;28;20069;-77
2023/12/02 12:25:14;;;;;;;1.73;1.63;;;2.50;99.90;;;;;;4977527;28;20492;-78
2023/12/02 12:27:41;;;;;;;2.38;1.90;;;2.50;99.90;;;;;;4999677;28;20050;-80
2023/12/02 12:30:08;;;;;;;2.45;2.10;;;2.50;99.90;;;;;;4995658;28;20049;-80
2023/12/02 12:32:33;;;;;;;1.20;1.05;;;2.50;99.90;;;;;;4995417;28;20501;-79
2023/12/02 12:34:59;;;;;;;8.30;5.77;;;2.50;99.90;;;;;;4976205;28;20050;-80
2023/12/02 12:37:25;;;;;;;8.55;4.93;;;2.50;99.90;;;;;;4994950;28;20044;-81
2023/12/02 12:39:51;;;;;;;4.75;3.78;;;2.50;99.90;;;;;;4993235;28;20579;-81
2023/12/02 12:42:17;;;;;;;2.28;2.08;;;2.50;99.90;;;;;;4994267;28;20053;-80
2023/12/02 12:44:44;;;;;;;4.83;2.53;;;2.60;99.90;;;;;;4983187;28;20564;-80
2023/12/02 12:47:10;;;;;;;2.08;1.98;;;2.60;99.90;;;;;;4964719;28;20085;-79
2023/12/02 12:49:42;;;;;;;4.17;2.97;;;2.60;99.90;;;;;;4982856;28;20115;-79
2023/12/02 12:52:19;;;;;;;2.67;2.07;;;2.60;99.90;;;;;;4982692;28;20511;-78
2023/12/02 12:54:51;;;;;;;2.70;1.73;;;2.60;99.90;;;;;;4990529;28;20046;-80
2023/12/02 12:57:49;;;;;;;4.57;2.72;;;2.60;99.90;;;;;;4968652;28;20632;-79
2023/12/02 13:00:16;;;;;;;2.42;2.33;;;2.60;99.90;;;;;;4990692;28;20129;-79
2023/12/02 13:03:12;;;;;;;1.55;1.33;;;2.60;99.90;;;;;;4983707;28;20070;-79
2023/12/02 13:05:45;;;;;;;3.72;2.28;;;2.70;99.90;;;;;;4966975;28;20104;-79